Time;durP1;ratioP1;P1;durP2;ratioP2;P2;SDS_P1;SDS_P2;PMS_P1;PMS_P2;Temp;Humidity;BMP_temperature;BMP_pressure;BME280_temperature;BME280_humidity;BME280_pressure;Samples;Min_cycle;Max_cycle;Signal;HPM_P1;HPM_P2
2023/08/15 00:00:06;;;;;;;12.43;7.05;;;;;;;19.41;100.00;100301.19;5006696;28;20239;-70
2023/08/15 00:02:32;;;;;;;11.00;7.32;;;;;;;19.51;100.00;100292.00;5004077;28;20342;-70
2023/08/15 00:04:59;;;;;;;11.35;6.78;;;;;;;19.58;100.00;100299.00;5009833;28;20204;-70
2023/08/15 00:07:25;;;;;;;9.25;6.95;;;;;;;19.56;100.00;100286.53;5009549;28;20654;-70
2023/08/15 00:09:52;;;;;;;9.85;6.95;;;;;;;19.67;100.00;100289.88;5003323;28;20280;-70
2023/08/15 00:12:18;;;;;;;12.23;6.40;;;;;;;19.73;100.00;100289.69;5007327;28;20366;-70
2023/08/15 00:14:44;;;;;;;8.40;7.10;;;;;;;19.71;100.00;100297.81;5009047;28;20693;-70
2023/08/15 00:17:11;;;;;;;10.48;6.57;;;;;;;19.69;100.00;100290.69;5010042;28;20222;-70
2023/08/15 00:19:39;;;;;;;9.65;6.63;;;;;;;19.59;100.00;100283.78;4992300;28;20239;-70
2023/08/15 00:22:05;;;;;;;9.55;6.28;;;;;;;19.56;100.00;100295.47;5000223;28;20196;-70
2023/08/15 00:24:32;;;;;;;7.78;6.03;;;;;;;19.51;100.00;100285.75;5009589;28;20200;-70
2023/08/15 00:26:58;;;;;;;10.10;6.50;;;;;;;19.49;100.00;100284.91;5009445;28;20611;-70
2023/08/15 00:29:24;;;;;;;8.45;6.40;;;;;;;19.47;100.00;100276.00;5007177;28;20227;-70
2023/08/15 00:31:51;;;;;;;10.15;6.80;;;;;;;19.50;100.00;100267.84;5009526;28;20286;-70
2023/08/15 00:34:17;;;;;;;11.85;6.80;;;;;;;19.62;100.00;100275.66;5007948;28;20200;-70
2023/08/15 00:36:43;;;;;;;9.82;6.65;;;;;;;19.70;100.00;100279.91;5009514;28;20216;-70
2023/08/15 00:39:10;;;;;;;7.80;6.22;;;;;;;19.66;100.00;100264.78;5010068;28;20227;-70
2023/08/15 00:41:36;;;;;;;7.57;6.22;;;;;;;19.66;100.00;100263.91;5007776;28;20682;-70
2023/08/15 00:44:03;;;;;;;7.70;5.82;;;;;;;19.62;100.00;100257.75;5002942;28;20291;-70
2023/08/15 00:46:30;;;;;;;9.88;5.72;;;;;;;19.60;100.00;100262.25;5013033;28;20311;-70
2023/08/15 00:48:58;;;;;;;12.23;6.20;;;;;;;19.62;100.00;100264.91;5013144;28;20262;-70
2023/08/15 00:51:25;;;;;;;10.82;6.32;;;;;;;19.55;100.00;100268.66;5010700;28;20236;-70
2023/08/15 00:53:52;;;;;;;10.40;6.55;;;;;;;19.52;100.00;100277.63;5009413;28;20639;-71
2023/08/15 00:56:19;;;;;;;7.70;5.70;;;;;;;19.45;100.00;100272.47;4995625;28;20216;-70
2023/08/15 00:58:46;;;;;;;7.28;6.03;;;;;;;19.39;100.00;100270.81;5010154;28;20204;-70
2023/08/15 01:01:15;;;;;;;7.65;6.15;;;;;;;19.34;100.00;100272.75;5012704;28;20204;-70
2023/08/15 01:03:42;;;;;;;7.50;6.05;;;;;;;19.28;100.00;100273.78;5010837;28;20207;-70
2023/08/15 01:06:09;;;;;;;10.18;6.03;;;;;;;19.24;100.00;100269.41;5012706;28;20594;-70
2023/08/15 01:08:35;;;;;;;7.65;5.93;;;;;;;19.18;100.00;100253.41;5012545;28;20220;-70
2023/08/15 01:11:03;;;;;;;8.07;5.78;;;;;;;19.16;100.00;100252.56;5012182;28;20664;-70
2023/08/15 01:13:53;;;;;;;8.75;5.70;;;;;;;19.13;100.00;100259.81;5010931;28;20235;-70
2023/08/15 01:16:28;;;;;;;8.50;6.43;;;;;;;19.07;100.00;100250.09;5009723;28;20215;-70
2023/08/15 01:19:00;;;;;;;8.55;6.15;;;;;;;19.02;100.00;100249.34;5012694;28;20196;-70
2023/08/15 01:21:32;;;;;;;11.77;6.40;;;;;;;18.97;100.00;100256.63;4993777;28;20207;-70
2023/08/15 01:23:58;;;;;;;10.38;6.68;;;;;;;18.94;100.00;100262.06;4992620;28;20271;-70
2023/08/15 01:26:25;;;;;;;8.32;5.70;;;;;;;18.91;100.00;100270.16;5010016;28;20228;-70
2023/08/15 01:28:51;;;;;;;13.00;6.07;;;;;;;18.88;100.00;100278.28;5004161;28;20200;-70
2023/08/15 01:31:25;;;;;;;11.60;6.78;;;;;;;18.85;100.00;100281.94;5003470;28;20203;-70
2023/08/15 01:34:11;;;;;;;12.38;6.85;;;;;;;18.79;100.00;100268.63;5003032;28;20902;-70
2023/08/15 01:36:43;;;;;;;10.23;6.43;;;;;;;18.78;100.00;100266.84;5012300;28;20224;-70
2023/08/15 01:39:12;;;;;;;10.15;6.50;;;;;;;18.79;100.00;100261.47;4999772;28;20235;-70
2023/08/15 01:41:41;;;;;;;9.02;6.55;;;;;;;18.97;100.00;100259.28;4992906;28;20207;-70
2023/08/15 01:44:10;;;;;;;10.25;6.68;;;;;;;18.93;100.00;100257.59;4979437;28;20236;-70
2023/08/15 01:46:37;;;;;;;7.88;6.20;;;;;;;18.88;100.00;100259.50;5012238;28;20309;-70
2023/08/15 01:49:03;;;;;;;10.43;6.05;;;;;;;18.85;100.00;100263.16;5000920;28;20625;-70
2023/08/15 01:51:30;;;;;;;9.93;6.97;;;;;;;18.86;100.00;100259.53;4992063;28;20205;-70
2023/08/15 01:53:56;;;;;;;8.65;6.85;;;;;;;18.87;100.00;100264.00;4991880;28;20204;-70
2023/08/15 01:56:24;;;;;;;10.98;7.70;;;;;;;18.92;100.00;100266.56;5007790;28;20736;-70
2023/08/15 01:58:50;;;;;;;9.43;6.85;;;;;;;19.08;100.00;100271.53;5003051;28;20197;-71
2023/08/15 02:01:16;;;;;;;9.35;7.28;;;;;;;19.12;100.00;100274.16;4992713;28;20205;-70
2023/08/15 02:03:43;;;;;;;12.75;7.35;;;;;;;19.17;100.00;100291.03;4991943;28;20227;-70
2023/08/15 02:06:09;;;;;;;9.75;7.40;;;;;;;19.20;100.00;100283.78;5001897;28;20224;-70
2023/08/15 02:08:36;;;;;;;11.10;7.30;;;;;;;19.08;100.00;100279.59;5011267;28;20224;-70
2023/08/15 02:11:02;;;;;;;11.80;7.55;;;;;;;18.99;100.00;100295.91;4992570;28;20217;-70
2023/08/15 02:13:30;;;;;;;10.57;7.13;;;;;;;19.06;100.00;100305.59;4992111;28;20196;-70
2023/08/15 02:15:57;;;;;;;10.10;7.30;;;;;;;19.14;100.00;100307.22;4995692;28;20660;-70
2023/08/15 02:18:28;;;;;;;11.38;7.43;;;;;;;19.16;100.00;100308.94;5011468;28;20627;-70
2023/08/15 02:20:55;;;;;;;7.93;6.95;;;;;;;19.24;100.00;100298.94;4993185;28;20655;-70
2023/08/15 02:23:22;;;;;;;11.35;7.25;;;;;;;19.25;100.00;100299.81;4991804;28;20292;-70
2023/08/15 02:25:48;;;;;;;14.63;8.02;;;;;;;19.32;100.00;100304.13;4991073;28;20205;-70
2023/08/15 02:28:14;;;;;;;11.45;8.23;;;;;;;19.28;100.00;100330.16;5004308;28;20223;-70
2023/08/15 02:30:41;;;;;;;10.20;7.32;;;;;;;19.29;100.00;100363.28;4986019;28;20205;-70
2023/08/15 02:33:08;;;;;;;14.77;8.73;;;;;;;19.35;100.00;100376.56;4991525;28;20211;-71
2023/08/15 02:35:38;;;;;;;16.17;8.10;;;;;;;19.42;100.00;100389.81;4991434;28;20201;-71
2023/08/15 02:38:05;;;;;;;12.27;8.02;;;;;;;19.64;100.00;100371.44;5005667;28;20787;-73
2023/08/15 02:40:31;;;;;;;10.65;8.20;;;;;;;19.65;100.00;100366.94;5004881;28;20263;-71
2023/08/15 02:42:57;;;;;;;14.10;8.30;;;;;;;19.72;100.00;100360.50;4991448;28;20292;-71
2023/08/15 02:45:24;;;;;;;12.27;8.15;;;;;;;19.68;100.00;100367.75;4991887;28;20201;-72
2023/08/15 02:47:50;;;;;;;13.05;8.52;;;;;;;19.68;100.00;100372.22;5006046;28;20224;-71
2023/08/15 02:50:17;;;;;;;13.43;8.77;;;;;;;19.61;100.00;100393.00;5006359;28;20260;-72
2023/08/15 02:52:43;;;;;;;11.35;8.10;;;;;;;19.62;100.00;100392.06;4991597;28;20208;-73
2023/08/15 02:55:10;;;;;;;11.07;8.00;;;;;;;19.68;100.00;100397.31;4994859;28;20207;-73
2023/08/15 02:57:37;;;;;;;13.50;7.88;;;;;;;19.67;100.00;100414.34;4999559;28;20216;-74
2023/08/15 03:00:04;;;;;;;11.65;8.15;;;;;;;19.68;100.00;100410.75;5010497;28;22292;-74
2023/08/15 03:02:30;;;;;;;14.25;8.40;;;;;;;19.71;100.00;100393.66;4996457;28;20203;-75
2023/08/15 03:04:57;;;;;;;13.38;8.35;;;;;;;19.72;100.00;100387.38;4990221;28;20201;-76
2023/08/15 03:07:24;;;;;;;12.27;9.25;;;;;;;19.69;100.00;100374.88;4990298;28;20225;-75
2023/08/15 03:09:50;;;;;;;17.13;8.77;;;;;;;19.70;100.00;100371.28;5009247;28;20251;-75
2023/08/15 03:12:17;;;;;;;12.13;8.75;;;;;;;19.67;100.00;100349.84;4998267;28;20241;-75
2023/08/15 03:14:43;;;;;;;14.00;8.57;;;;;;;19.68;100.00;100322.06;4991583;28;20205;-75
2023/08/15 03:17:09;;;;;;;15.57;9.10;;;;;;;19.65;100.00;100289.91;4990823;28;20224;-75
2023/08/15 03:19:37;;;;;;;13.90;9.50;;;;;;;19.62;100.00;100240.75;5003539;28;20690;-74
2023/08/15 03:22:06;;;;;;;21.25;9.88;;;;;;;19.61;100.00;100209.38;5007868;28;20730;-74
2023/08/15 03:24:33;;;;;;;16.17;9.73;;;;;;;19.64;100.00;100233.53;4973602;28;20243;-74
2023/08/15 03:26:59;;;;;;;15.27;10.18;;;;;;;19.58;100.00;100241.72;4974353;28;20227;-73
2023/08/15 03:29:29;;;;;;;14.82;9.70;;;;;;;19.66;100.00;100248.69;4989867;28;20201;-73
2023/08/15 03:31:57;;;;;;;20.80;11.10;;;;;;;19.62;100.00;100252.38;4990763;28;20255;-73
2023/08/15 03:34:24;;;;;;;13.43;10.05;;;;;;;19.67;100.00;100257.63;4991036;28;20201;-73
2023/08/15 03:36:50;;;;;;;17.63;10.20;;;;;;;19.66;100.00;100271.97;4991178;28;20248;-73
2023/08/15 03:39:17;;;;;;;15.63;10.18;;;;;;;19.68;100.00;100289.81;5000519;28;20204;-72
2023/08/15 03:41:43;;;;;;;16.38;9.95;;;;;;;19.64;100.00;100300.69;5010128;28;20615;-73
2023/08/15 03:44:10;;;;;;;13.75;10.13;;;;;;;19.64;100.00;100304.25;4984419;28;20200;-74
2023/08/15 03:46:36;;;;;;;15.50;9.85;;;;;;;19.60;100.00;100307.03;4995111;28;20606;-74
2023/08/15 03:49:03;;;;;;;14.05;9.88;;;;;;;19.63;100.00;100312.34;4990196;28;20248;-73
2023/08/15 03:51:30;;;;;;;13.25;9.93;;;;;;;19.70;100.00;100335.47;5005908;28;20207;-74
2023/08/15 03:54:13;;;;;;;13.27;9.82;;;;;;;19.65;100.00;100354.38;5009990;28;20211;-73
2023/08/15 03:56:39;;;;;;;16.08;10.77;;;;;;;19.64;100.00;100379.50;4994578;28;20599;-73
2023/08/15 03:59:06;;;;;;;16.52;10.27;;;;;;;19.65;100.00;100413.50;4998338;28;20247;-73
2023/08/15 04:01:32;;;;;;;15.85;10.20;;;;;;;19.64;100.00;100413.53;4995669;28;20211;-73
2023/08/15 04:03:59;;;;;;;15.00;9.57;;;;;;;19.64;100.00;100419.78;5007926;28;20215;-73
2023/08/15 04:06:25;;;;;;;17.10;9.90;;;;;;;19.61;100.00;100425.25;4986537;23;20224;-70
2023/08/15 04:08:53;;;;;;;13.82;10.35;;;;;;;19.63;100.00;100425.22;5000377;28;20223;-69
2023/08/15 04:11:19;;;;;;;15.38;10.75;;;;;;;19.73;100.00;100431.25;5007660;28;20477;-68
2023/08/15 04:13:46;;;;;;;17.45;10.85;;;;;;;19.73;100.00;100434.81;5009948;28;20684;-70
2023/08/15 04:16:14;;;;;;;15.98;9.55;;;;;;;19.71;100.00;100428.59;4992250;28;20205;-69
2023/08/15 04:18:41;;;;;;;15.40;9.30;;;;;;;19.75;100.00;100437.47;4995843;28;20204;-70
2023/08/15 04:21:10;;;;;;;13.73;9.55;;;;;;;19.73;100.00;100456.31;4993251;28;20200;-68
2023/08/15 04:23:36;;;;;;;16.05;9.10;;;;;;;19.68;100.00;100458.22;5009166;28;20599;-69
2023/08/15 04:26:03;;;;;;;12.82;7.25;;;;;;;19.61;100.00;100500.47;5003590;28;20205;-69
2023/08/15 04:28:29;;;;;;;13.85;6.70;;;;;;;19.52;100.00;100524.78;4994494;28;20219;-70
2023/08/15 04:30:56;;;;;;;11.00;6.13;;;;;;;19.45;100.00;100481.97;5002221;28;20204;-70
2023/08/15 04:33:22;;;;;;;10.98;5.35;;;;;;;19.36;100.00;100456.22;5007973;28;20222;-69
2023/08/15 04:35:48;;;;;;;6.63;4.22;;;;;;;19.31;100.00;100428.56;5005589;28;20205;-68
2023/08/15 04:38:15;;;;;;;5.15;3.00;;;;;;;19.31;100.00;100433.94;4994486;28;20224;-69
2023/08/15 04:40:43;;;;;;;6.97;2.87;;;;;;;19.21;100.00;100384.00;4976704;28;20284;-69
2023/08/15 04:43:12;;;;;;;4.03;3.00;;;;;;;19.13;100.00;100351.97;5002178;28;20200;-69
2023/08/15 04:45:43;;;;;;;3.30;2.53;;;;;;;19.09;100.00;100334.16;5013425;28;20279;-70
2023/08/15 04:48:11;;;;;;;6.45;2.30;;;;;;;19.05;100.00;100325.31;4994029;28;20260;-70
2023/08/15 04:50:38;;;;;;;4.72;2.08;;;;;;;19.00;100.00;100312.91;4977344;28;20236;-68
2023/08/15 04:53:05;;;;;;;3.95;2.05;;;;;;;19.00;100.00;100315.59;4988958;28;20200;-70
2023/08/15 04:55:32;;;;;;;2.75;2.10;;;;;;;18.99;100.00;100303.97;4996020;28;20214;-70
2023/08/15 04:57:58;;;;;;;3.43;1.80;;;;;;;18.93;100.00;100304.09;4995399;28;20739;-70
2023/08/15 05:00:25;;;;;;;2.88;1.98;;;;;;;18.94;100.00;100313.03;4976108;28;20209;-69
2023/08/15 05:02:51;;;;;;;2.53;2.03;;;;;;;18.98;100.00;100317.41;4992541;28;20237;-70
2023/08/15 05:05:18;;;;;;;5.88;2.20;;;;;;;19.07;100.00;100314.53;5012810;28;20196;-70
2023/08/15 05:07:44;;;;;;;4.05;2.15;;;;;;;19.26;100.00;100313.22;4988010;28;20723;-70
2023/08/15 05:10:11;;;;;;;3.85;2.67;;;;;;;19.34;100.00;100304.97;4993192;28;20580;-67
2023/08/15 05:12:37;;;;;;;2.88;2.35;;;;;;;19.34;100.00;100307.66;4993451;28;20205;-69
2023/08/15 05:15:07;;;;;;;4.97;2.90;;;;;;;19.41;100.00;100307.47;5006213;28;20232;-69
2023/08/15 05:17:34;;;;;;;4.03;2.58;;;;;;;19.48;100.00;100318.06;5006889;28;20217;-70
2023/08/15 05:20:01;;;;;;;3.08;2.25;;;;;;;19.51;100.00;100310.81;4993397;28;20268;-69
2023/08/15 05:22:27;;;;;;;3.03;2.42;;;;;;;19.54;100.00;100309.88;4993107;28;20255;-69
2023/08/15 05:24:54;;;;;;;5.55;2.60;;;;;;;19.52;100.00;100320.63;5001735;28;20208;-69
2023/08/15 05:27:20;;;;;;;4.30;2.50;;;;;;;19.55;100.00;100325.06;5007535;28;20256;-69
2023/08/15 05:29:47;;;;;;;4.43;2.90;;;;;;;19.56;100.00;100324.16;4993308;28;20376;-69
2023/08/15 05:32:13;;;;;;;5.75;3.13;;;;;;;19.52;100.00;100325.13;4993078;28;20205;-70
2023/08/15 05:34:40;;;;;;;4.78;2.78;;;;;;;19.51;100.00;100332.28;5004459;28;20283;-70
2023/08/15 05:37:06;;;;;;;4.05;3.10;;;;;;;19.47;100.00;100329.72;5012294;28;20669;-70
2023/08/15 05:39:32;;;;;;;7.10;3.90;;;;;;;19.48;100.00;100347.59;4998709;28;20225;-69
2023/08/15 05:41:59;;;;;;;7.57;3.55;;;;;;;19.48;100.00;100361.03;4992614;28;20219;-68
2023/08/15 05:44:25;;;;;;;4.50;3.10;;;;;;;19.50;100.00;100362.75;4992671;28;20224;-70
2023/08/15 05:46:52;;;;;;;4.85;2.90;;;;;;;19.49;100.00;100362.78;4993091;28;20234;-69
2023/08/15 05:49:18;;;;;;;4.35;2.90;;;;;;;19.46;100.00;100368.25;4983439;28;20243;-69
2023/08/15 05:51:45;;;;;;;5.75;2.67;;;;;;;19.44;100.00;100388.88;4993107;28;20237;-69
2023/08/15 05:54:11;;;;;;;5.45;2.97;;;;;;;19.39;100.00;100391.69;4992975;28;20207;-69
2023/08/15 05:56:38;;;;;;;7.05;3.38;;;;;;;19.47;100.00;100391.50;5005158;28;20274;-70
2023/08/15 05:59:05;;;;;;;5.85;3.22;;;;;;;19.42;100.00;100396.97;5010373;28;20231;-70
2023/08/15 06:01:31;;;;;;;5.07;2.80;;;;;;;19.42;100.00;100395.19;4992810;28;20680;-69
2023/08/15 06:03:58;;;;;;;4.88;3.17;;;;;;;19.48;100.00;100401.31;4992326;28;20197;-70
2023/08/15 06:06:24;;;;;;;5.18;3.25;;;;;;;19.55;100.00;100408.34;4982725;28;20219;-69
2023/08/15 06:08:51;;;;;;;6.57;3.25;;;;;;;19.61;100.00;100410.88;4994325;28;20220;-68
2023/08/15 06:11:17;;;;;;;5.20;3.38;;;;;;;19.71;100.00;100401.72;4992353;28;20575;-68
2023/08/15 06:13:43;;;;;;;7.68;3.35;;;;;;;19.85;100.00;100404.94;4992781;28;20239;-68
2023/08/15 06:16:10;;;;;;;5.30;3.40;;;;;;;19.94;100.00;100403.84;4993826;28;20211;-68
2023/08/15 06:18:39;;;;;;;4.78;3.47;;;;;;;20.01;100.00;100414.44;5012072;28;20200;-70
2023/08/15 06:21:05;;;;;;;5.75;3.50;;;;;;;20.16;100.00;100431.09;5001377;28;20212;-70
2023/08/15 06:23:32;;;;;;;3.85;3.22;;;;;;;20.32;100.00;100425.25;4992164;28;20216;-69
2023/08/15 06:25:58;;;;;;;5.10;3.20;;;;;;;20.57;100.00;100420.16;4992892;28;20204;-69
2023/08/15 06:28:25;;;;;;;3.13;2.70;;;;;;;20.59;100.00;100431.75;5009862;28;20223;-69
2023/08/15 06:30:51;;;;;;;2.90;2.60;;;;;;;20.65;100.00;100442.34;4985713;28;20197;-68
2023/08/15 06:33:17;;;;;;;2.55;2.10;;;;;;;20.80;100.00;100449.13;4991974;28;20283;-70
2023/08/15 06:35:44;;;;;;;4.10;2.40;;;;;;;20.78;100.00;100445.59;4992206;28;20203;-68
2023/08/15 06:38:10;;;;;;;6.00;2.47;;;;;;;20.83;100.00;100443.69;5002073;28;21166;-69
2023/08/15 06:40:39;;;;;;;4.80;2.38;;;;;;;20.87;100.00;100439.97;5004484;28;20287;-70
2023/08/15 06:43:05;;;;;;;6.35;2.45;;;;;;;20.87;100.00;100431.00;4999452;28;20296;-70
2023/08/15 06:45:32;;;;;;;5.47;2.58;;;;;;;20.99;100.00;100435.16;4978756;28;20287;-70
2023/08/15 06:47:58;;;;;;;4.93;2.67;;;;;;;21.09;100.00;100434.84;4996751;28;20232;-70
2023/08/15 06:50:24;;;;;;;4.22;2.90;;;;;;;21.13;100.00;100439.22;5011354;28;20706;-70
2023/08/15 06:52:51;;;;;;;3.33;3.00;;;;;;;21.18;100.00;100434.56;4994619;28;20657;-68
2023/08/15 06:55:17;;;;;;;6.38;2.75;;;;;;;21.14;100.00;100430.22;4991525;28;20299;-70
2023/08/15 06:57:44;;;;;;;6.80;2.80;;;;;;;21.15;100.00;100445.44;4991490;28;20300;-70
2023/08/15 07:00:12;;;;;;;4.65;3.00;;;;;;;21.29;100.00;100436.13;4991277;28;20212;-69
2023/08/15 07:02:39;;;;;;;5.75;2.92;;;;;;;21.58;100.00;100430.72;4991575;28;20205;-70
2023/08/15 07:05:07;;;;;;;6.50;2.72;;;;;;;22.41;100.00;100431.59;4990951;28;20673;-70
2023/08/15 07:07:33;;;;;;;3.95;2.33;;;;;;;22.74;100.00;100443.03;4991542;28;20319;-69
2023/08/15 07:10:00;;;;;;;4.40;3.00;;;;;;;22.64;100.00;100434.41;4974190;28;20227;-69
2023/08/15 07:12:26;;;;;;;7.63;2.72;;;;;;;22.78;100.00;100425.78;4991121;28;20204;-68
2023/08/15 07:14:53;;;;;;;4.25;2.60;;;;;;;24.10;100.00;100430.63;4990917;28;20233;-69
2023/08/15 07:17:19;;;;;;;6.07;3.10;;;;;;;24.53;100.00;100447.81;4991436;28;20700;-70
2023/08/15 07:19:45;;;;;;;10.43;3.58;;;;;;;25.11;100.00;100445.25;4990874;28;20579;-69
2023/08/15 07:22:12;;;;;;;7.65;3.35;;;;;;;26.49;100.00;100443.09;4990475;28;20208;-69
2023/08/15 07:24:38;;;;;;;5.10;3.05;;;;;;;27.48;100.00;100441.38;4991176;28;20210;-69
2023/08/15 07:27:05;;;;;;;6.88;2.92;;;;;;;27.93;100.00;100449.78;4990826;28;20794;-68
2023/08/15 07:29:31;;;;;;;7.78;2.60;;;;;;;27.24;100.00;100461.81;4991003;28;20308;-69
2023/08/15 07:31:57;;;;;;;5.25;3.15;;;;;;;26.72;100.00;100466.34;4990414;28;20669;-68
2023/08/15 07:34:24;;;;;;;6.18;3.22;;;;;;;27.07;100.00;100470.84;4990636;28;20239;-70
2023/08/15 07:36:50;;;;;;;7.35;3.50;;;;;;;27.65;100.00;100464.09;4992208;28;20763;-68
2023/08/15 07:39:17;;;;;;;8.02;3.53;;;;;;;28.18;100.00;100469.22;4992901;28;20203;-70
2023/08/15 07:41:43;;;;;;;6.95;3.25;;;;;;;28.60;100.00;100465.81;4995669;28;20205;-70
2023/08/15 07:44:09;;;;;;;7.68;3.33;;;;;;;28.87;100.00;100465.16;4990268;28;20208;-70
2023/08/15 07:46:36;;;;;;;6.10;3.15;;;;;;;28.78;100.00;100474.72;4990354;28;20260;-70
2023/08/15 07:49:03;;;;;;;7.82;3.13;;;;;;;27.88;100.00;100482.72;5005416;28;20224;-69
2023/08/15 07:51:29;;;;;;;6.03;3.40;;;;;;;27.74;100.00;100478.06;5004785;28;20259;-68
2023/08/15 07:53:56;;;;;;;4.10;3.13;;;;;;;27.30;100.00;100482.34;4990328;28;20690;-69
2023/08/15 07:56:22;;;;;;;6.45;2.92;;;;;;;26.73;100.00;100484.41;4994351;28;20708;-69
2023/08/15 07:58:50;;;;;;;7.28;3.63;;;;;;;26.78;100.00;100499.53;5004678;28;20202;-69
2023/08/15 08:01:16;;;;;;;6.97;2.92;;;;;;;27.15;100.00;100500.34;5006483;28;20288;-68
2023/08/15 08:03:42;;;;;;;9.98;3.10;;;;;;;27.51;100.00;100507.47;4990350;28;20204;-69
2023/08/15 08:06:09;;;;;;;6.68;2.92;;;;;;;27.39;100.00;100500.88;4990595;28;20208;-69
2023/08/15 08:08:55;;;;;;;7.10;3.00;;;;;;;27.63;100.00;100499.56;4997464;28;20224;-70
2023/08/15 08:11:22;;;;;;;6.47;3.28;;;;;;;27.81;100.00;100491.34;5005809;28;20627;-70
2023/08/15 08:13:48;;;;;;;6.35;3.33;;;;;;;27.66;100.00;100479.47;4990153;28;20197;-70
2023/08/15 08:16:17;;;;;;;5.72;2.60;;;;;;;27.53;100.00;100484.66;4990124;28;20204;-69
2023/08/15 08:18:43;;;;;;;4.78;3.00;;;;;;;27.23;100.00;100489.06;4993282;28;20528;-71
2023/08/15 08:21:11;;;;;;;7.32;2.70;;;;;;;27.12;100.00;100482.34;4992085;28;20239;-70
2023/08/15 08:23:38;;;;;;;6.78;2.70;;;;;;;26.97;100.00;100484.97;4996295;28;20237;-69
2023/08/15 08:26:04;;;;;;;5.75;2.65;;;;;;;26.83;100.00;100481.16;4989305;28;20216;-70
2023/08/15 08:28:31;;;;;;;3.70;2.35;;;;;;;26.77;100.00;100484.16;4989114;28;20316;-70
2023/08/15 08:30:58;;;;;;;4.15;2.67;;;;;;;26.72;100.00;100482.66;5006781;28;20808;-71
2023/08/15 08:33:25;;;;;;;3.95;2.85;;;;;;;26.79;100.00;100484.97;4997611;28;20215;-70
2023/08/15 08:35:51;;;;;;;4.05;2.88;;;;;;;26.82;100.00;100481.25;4990369;28;20252;-70
2023/08/15 08:38:18;;;;;;;4.63;2.97;;;;;;;26.94;100.00;100482.44;4989947;28;20724;-69
2023/08/15 08:40:47;;;;;;;4.03;2.72;;;;;;;26.89;100.00;100476.38;5001547;28;20626;-70
2023/08/15 08:43:15;;;;;;;3.55;2.50;;;;;;;27.05;100.00;100472.78;5006455;28;20219;-69
2023/08/15 08:45:48;;;;;;;4.57;2.80;;;;;;;27.11;100.00;100482.44;4990333;28;20228;-70
2023/08/15 08:48:16;;;;;;;5.53;2.80;;;;;;;27.28;100.00;100484.28;4992334;28;20301;-69
2023/08/15 08:50:45;;;;;;;3.35;2.65;;;;;;;27.24;100.00;100494.44;5002477;28;20219;-70
2023/08/15 08:53:11;;;;;;;4.97;2.50;;;;;;;27.45;100.00;100501.41;5007015;28;20669;-71
2023/08/15 08:55:38;;;;;;;6.82;2.72;;;;;;;27.62;100.00;100502.34;4990009;28;20196;-69
2023/08/15 08:58:09;;;;;;;5.20;2.90;;;;;;;27.72;100.00;100499.06;4998005;28;20614;-70
2023/08/15 09:00:37;;;;;;;4.75;2.95;;;;;;;27.55;100.00;100509.06;5002416;28;20219;-71
2023/08/15 09:03:03;;;;;;;7.00;3.03;;;;;;;27.34;100.00;100514.72;5015905;28;20588;-71
2023/08/15 09:05:30;;;;;;;7.40;2.78;;;;;;;27.41;100.00;100510.72;5008642;28;20574;-70
2023/08/15 09:07:57;;;;;;;4.72;2.95;;;;;;;26.94;100.00;100505.06;5000857;28;20293;-70
2023/08/15 09:10:24;;;;;;;7.10;3.22;;;;;;;26.66;100.00;100500.16;4998473;28;20223;-70
2023/08/15 09:12:50;;;;;;;7.40;2.67;;;;;;;26.84;100.00;100507.38;5013812;28;20294;-70
2023/08/15 09:15:16;;;;;;;7.57;3.05;;;;;;;26.99;100.00;100507.56;5002184;28;20208;-69
2023/08/15 09:17:43;;;;;;;13.48;3.30;;;;;;;27.14;100.00;100501.31;4993748;28;20209;-70
2023/08/15 09:20:15;;;;;;;6.32;2.72;;;;;;;27.27;100.00;100505.16;4992800;28;20209;-71
2023/08/15 09:22:45;;;;;;;4.65;2.50;;;;;;;27.38;100.00;100499.13;5001123;28;20255;-71
2023/08/15 09:25:14;;;;;;;4.40;2.30;;;;;;;27.58;100.00;100509.78;4993075;28;20990;-71
2023/08/15 09:27:42;;;;;;;6.75;2.80;;;;;;;27.77;100.00;100512.41;4993373;28;20227;-69
2023/08/15 09:30:11;;;;;;;7.13;2.50;;;;;;;28.16;100.00;100509.28;4975956;28;20253;-70
2023/08/15 09:32:39;;;;;;;3.58;2.50;;;;;;;28.60;100.00;100509.44;5003071;28;20279;-71
2023/08/15 09:35:08;;;;;;;3.40;2.42;;;;;;;28.80;100.00;100519.13;5010545;28;20204;-70
2023/08/15 09:37:57;;;;;;;6.38;2.40;;;;;;;28.64;100.00;100507.41;5007383;28;20228;-70
2023/08/15 09:40:25;;;;;;;4.07;2.60;;;;;;;28.29;100.00;100513.06;4993685;28;20563;-71
2023/08/15 09:42:52;;;;;;;5.13;2.60;;;;;;;28.37;100.00;100513.50;4992980;28;20660;-71
2023/08/15 09:45:19;;;;;;;3.95;2.60;;;;;;;28.24;100.00;100517.03;4992782;28;20656;-69
2023/08/15 09:47:46;;;;;;;5.43;2.60;;;;;;;28.64;100.00;100521.03;5005770;28;20308;-71
2023/08/15 09:50:15;;;;;;;4.05;2.60;;;;;;;28.66;100.00;100511.78;4992418;28;20225;-69
2023/08/15 09:52:46;;;;;;;4.32;2.30;;;;;;;29.07;100.00;100513.03;4992602;28;20205;-70
2023/08/15 09:55:17;;;;;;;4.63;2.53;;;;;;;29.01;100.00;100514.28;4983080;28;20235;-70
2023/08/15 09:57:44;;;;;;;3.42;2.92;;;;;;;28.71;100.00;100523.28;5012448;28;20227;-69
2023/08/15 10:00:12;;;;;;;3.40;2.00;;;;;;;28.60;100.00;100520.34;4992527;28;20247;-70
2023/08/15 10:02:48;;;;;;;2.83;2.10;;;;;;;28.87;100.00;100519.69;4991843;28;20236;-70
2023/08/15 10:05:19;;;;;;;6.40;2.47;;;;;;;28.97;100.00;100523.63;4984288;28;20199;-71
2023/08/15 10:07:46;;;;;;;3.88;2.30;;;;;;;28.81;100.00;100529.06;5012278;28;20278;-72
2023/08/15 10:10:16;;;;;;;2.55;2.20;;;;;;;29.09;100.00;100524.72;4975833;28;20224;-70
2023/08/15 10:12:45;;;;;;;6.47;2.30;;;;;;;29.33;100.00;100529.53;4991787;28;20427;-71
2023/08/15 10:15:13;;;;;;;5.63;1.98;;;;;;;29.40;74.95;100521.84;4990964;28;20201;-70
2023/08/15 10:17:40;;;;;;;2.88;2.10;;;;;;;29.47;71.27;100536.00;4994026;28;20787;-70
2023/08/15 10:20:13;;;;;;;3.08;2.17;;;;;;;30.00;69.22;100532.59;5002103;28;20201;-71
2023/08/15 10:22:39;;;;;;;2.60;2.13;;;;;;;30.30;69.41;100531.59;4992138;28;20201;-71
2023/08/15 10:25:28;;;;;;;5.68;1.85;;;;;;;30.46;69.21;100530.50;4991345;28;20216;-71
2023/08/15 10:27:55;;;;;;;3.15;2.15;;;;;;;30.46;67.31;100529.63;5008645;28;20216;-71
2023/08/15 10:30:32;;;;;;;3.22;2.00;;;;;;;30.42;66.96;100528.94;4982284;28;20697;-71
2023/08/15 10:33:11;;;;;;;4.28;2.95;;;;;;;30.03;69.15;100518.78;4991795;28;20208;-71
2023/08/15 10:35:42;;;;;;;5.32;2.58;;;;;;;29.90;71.26;100540.50;4991860;28;20208;-71
2023/08/15 10:38:16;;;;;;;4.47;2.30;;;;;;;29.72;71.95;100549.88;5006644;28;20234;-72
2023/08/15 10:40:44;;;;;;;4.03;2.17;;;;;;;29.45;74.00;100557.94;5005473;28;20227;-71
2023/08/15 10:43:12;;;;;;;4.40;2.40;;;;;;;29.18;74.58;100562.34;4991349;28;20699;-72
2023/08/15 10:45:43;;;;;;;3.40;2.13;;;;;;;28.81;78.71;100566.34;4999597;28;20620;-73
2023/08/15 10:48:10;;;;;;;5.68;2.08;;;;;;;28.13;83.63;100560.31;5002799;28;20224;-73
2023/08/15 10:50:44;;;;;;;4.30;1.73;;;;;;;27.76;88.09;100571.41;5006386;28;20225;-71
2023/08/15 10:53:11;;;;;;;2.97;2.17;;;;;;;27.13;100.00;100572.97;5000196;28;20208;-73
2023/08/15 10:55:38;;;;;;;4.75;2.00;;;;;;;26.74;100.00;100565.84;4996817;28;20204;-72
2023/08/15 10:58:11;;;;;;;4.45;2.40;;;;;;;26.27;100.00;100570.91;5001567;28;20256;-73
2023/08/15 11:00:39;;;;;;;4.78;2.92;;;;;;;25.88;100.00;100587.25;5012386;28;20200;-71
2023/08/15 11:03:07;;;;;;;5.15;2.65;;;;;;;25.61;100.00;100602.91;4999312;28;20240;-71
2023/08/15 11:05:33;;;;;;;3.28;2.88;;;;;;;25.03;100.00;100608.19;4991848;28;20734;-73
2023/08/15 11:08:13;;;;;;;3.53;2.80;;;;;;;24.58;100.00;100619.09;5002140;28;20232;-69
2023/08/15 11:10:44;;;;;;;7.32;3.10;;;;;;;24.11;100.00;100619.13;5011534;28;20223;-69
2023/08/15 11:13:11;;;;;;;5.13;3.05;;;;;;;23.74;100.00;100617.81;4999891;28;20200;-69
2023/08/15 11:15:38;;;;;;;4.00;3.10;;;;;;;23.43;100.00;100617.13;4999018;28;20704;-71